sensor_id;sensor_type;location;lat;lon;timestamp;temperature;humidity
52849;DHT22;38714;53.180;5.812;2023-03-21T00:00:20;8.80;99.90
52849;DHT22;38714;53.180;5.812;2023-03-21T00:02:46;8.80;99.90
52849;DHT22;38714;53.180;5.812;2023-03-21T00:05:11;8.80;99.90
52849;DHT22;38714;53.180;5.812;2023-03-21T00:07:37;8.80;99.90
52849;DHT22;38714;53.180;5.812;2023-03-21T00:10:03;8.80;99.90
52849;DHT22;38714;53.180;5.812;2023-03-21T00:12:29;8.80;99.90
52849;DHT22;38714;53.180;5.812;2023-03-21T00:14:57;8.80;99.90
52849;DHT22;38714;53.180;5.812;2023-03-21T00:17:29;8.80;99.90
52849;DHT22;38714;53.180;5.812;2023-03-21T00:19:59;8.90;99.90
52849;DHT22;38714;53.180;5.812;2023-03-21T00:22:26;8.80;99.90
52849;DHT22;38714;53.180;5.812;2023-03-21T00:24:53;8.90;99.90
52849;DHT22;38714;53.180;5.812;2023-03-21T00:27:19;8.80;99.90
52849;DHT22;38714;53.180;5.812;2023-03-21T00:29:47;8.80;99.90
52849;DHT22;38714;53.180;5.812;2023-03-21T00:32:14;8.90;99.90
52849;DHT22;38714;53.180;5.812;2023-03-21T00:34:41;8.80;99.90
52849;DHT22;38714;53.180;5.812;2023-03-21T00:37:07;8.80;99.90
52849;DHT22;38714;53.180;5.812;2023-03-21T00:39:34;8.80;99.90
52849;DHT22;38714;53.180;5.812;2023-03-21T00:41:59;8.80;99.90
52849;DHT22;38714;53.180;5.812;2023-03-21T00:44:25;8.90;99.90
52849;DHT22;38714;53.180;5.812;2023-03-21T00:46:51;8.80;99.90
52849;DHT22;38714;53.180;5.812;2023-03-21T00:49:17;8.90;99.90
52849;DHT22;38714;53.180;5.812;2023-03-21T00:51:45;8.90;99.90
52849;DHT22;38714;53.180;5.812;2023-03-21T00:54:11;8.90;99.90
52849;DHT22;38714;53.180;5.812;2023-03-21T00:56:37;8.80;99.90
52849;DHT22;38714;53.180;5.812;2023-03-21T00:59:03;8.90;99.90
52849;DHT22;38714;53.180;5.812;2023-03-21T01:01:29;8.90;99.90
52849;DHT22;38714;53.180;5.812;2023-03-21T01:04:00;8.90;99.90
52849;DHT22;38714;53.180;5.812;2023-03-21T01:06:36;8.90;99.90
52849;DHT22;38714;53.180;5.812;2023-03-21T01:09:06;8.90;99.90
52849;DHT22;38714;53.180;5.812;2023-03-21T01:11:32;8.90;99.90
52849;DHT22;38714;53.180;5.812;2023-03-21T01:13:59;8.90;99.90
52849;DHT22;38714;53.180;5.812;2023-03-21T01:16:25;8.90;99.90
52849;DHT22;38714;53.180;5.812;2023-03-21T01:18:51;8.90;99.90
52849;DHT22;38714;53.180;5.812;2023-03-21T01:21:17;8.90;99.90
52849;DHT22;38714;53.180;5.812;2023-03-21T01:23:43;8.80;99.90
52849;DHT22;38714;53.180;5.812;2023-03-21T01:26:09;8.80;99.90
52849;DHT22;38714;53.180;5.812;2023-03-21T01:28:37;8.90;99.90
52849;DHT22;38714;53.180;5.812;2023-03-21T01:31:04;8.90;99.90
52849;DHT22;38714;53.180;5.812;2023-03-21T01:33:30;8.90;99.90
52849;DHT22;38714;53.180;5.812;2023-03-21T01:35:56;8.80;99.90
52849;DHT22;38714;53.180;5.812;2023-03-21T01:38:23;8.90;99.90
52849;DHT22;38714;53.180;5.812;2023-03-21T01:40:49;8.80;99.90
52849;DHT22;38714;53.180;5.812;2023-03-21T01:43:34;8.90;99.90
52849;DHT22;38714;53.180;5.812;2023-03-21T01:46:16;8.90;99.90
52849;DHT22;38714;53.180;5.812;2023-03-21T01:49:00;8.90;99.90
52849;DHT22;38714;53.180;5.812;2023-03-21T01:51:29;8.90;99.90
52849;DHT22;38714;53.180;5.812;2023-03-21T01:53:57;8.90;99.90
52849;DHT22;38714;53.180;5.812;2023-03-21T01:56:32;8.90;99.90
52849;DHT22;38714;53.180;5.812;2023-03-21T01:59:05;8.90;99.90
52849;DHT22;38714;53.180;5.812;2023-03-21T02:01:32;8.90;99.90
52849;DHT22;38714;53.180;5.812;2023-03-21T02:04:00;8.90;99.90
52849;DHT22;38714;53.180;5.812;2023-03-21T02:06:59;8.90;99.90
52849;DHT22;38714;53.180;5.812;2023-03-21T02:09:25;8.90;99.90
52849;DHT22;38714;53.180;5.812;2023-03-21T02:11:53;8.90;99.90
52849;DHT22;38714;53.180;5.812;2023-03-21T02:14:19;8.90;99.90
52849;DHT22;38714;53.180;5.812;2023-03-21T02:28:44;8.90;99.90
52849;DHT22;38714;53.180;5.812;2023-03-21T02:39:26;8.80;99.90
52849;DHT22;38714;53.180;5.812;2023-03-21T02:42:07;8.90;99.90
52849;DHT22;38714;53.180;5.812;2023-03-21T02:44:42;8.80;99.90
52849;DHT22;38714;53.180;5.812;2023-03-21T02:47:17;8.80;99.90
52849;DHT22;38714;53.180;5.812;2023-03-21T02:49:54;8.90;99.90
52849;DHT22;38714;53.180;5.812;2023-03-21T02:52:27;8.90;99.90
52849;DHT22;38714;53.180;5.812;2023-03-21T02:54:55;8.80;99.90
52849;DHT22;38714;53.180;5.812;2023-03-21T02:57:21;8.80;99.90
52849;DHT22;38714;53.180;5.812;2023-03-21T02:59:48;8.80;99.90
52849;DHT22;38714;53.180;5.812;2023-03-21T03:02:15;8.80;99.90
52849;DHT22;38714;53.180;5.812;2023-03-21T03:04:43;8.90;99.90
52849;DHT22;38714;53.180;5.812;2023-03-21T03:07:20;8.90;99.90
52849;DHT22;38714;53.180;5.812;2023-03-21T03:12:48;8.90;99.90
52849;DHT22;38714;53.180;5.812;2023-03-21T03:17:47;8.90;99.90
52849;DHT22;38714;53.180;5.812;2023-03-21T03:20:23;8.90;99.90
52849;DHT22;38714;53.180;5.812;2023-03-21T03:23:04;8.90;99.90
52849;DHT22;38714;53.180;5.812;2023-03-21T03:25:42;8.90;99.90
52849;DHT22;38714;53.180;5.812;2023-03-21T03:28:12;8.90;99.90
52849;DHT22;38714;53.180;5.812;2023-03-21T03:30:39;8.90;99.90
52849;DHT22;38714;53.180;5.812;2023-03-21T03:33:07;8.90;99.90
52849;DHT22;38714;53.180;5.812;2023-03-21T03:35:33;8.90;99.90
52849;DHT22;38714;53.180;5.812;2023-03-21T03:38:01;8.90;99.90
52849;DHT22;38714;53.180;5.812;2023-03-21T03:40:45;8.90;99.90
52849;DHT22;38714;53.180;5.812;2023-03-21T03:43:19;8.90;99.90
52849;DHT22;38714;53.180;5.812;2023-03-21T03:45:54;8.90;99.90
52849;DHT22;38714;53.180;5.812;2023-03-21T03:51:06;8.90;99.90
52849;DHT22;38714;53.180;5.812;2023-03-21T03:54:38;8.90;99.90
52849;DHT22;38714;53.180;5.812;2023-03-21T03:56:32;8.90;99.90
52849;DHT22;38714;53.180;5.812;2023-03-21T03:58:57;8.90;99.90
52849;DHT22;38714;53.180;5.812;2023-03-21T04:01:23;8.90;99.90
52849;DHT22;38714;53.180;5.812;2023-03-21T04:03:50;8.90;99.90
52849;DHT22;38714;53.180;5.812;2023-03-21T04:06:17;8.90;99.90
52849;DHT22;38714;53.180;5.812;2023-03-21T04:08:42;8.90;99.90
52849;DHT22;38714;53.180;5.812;2023-03-21T04:11:11;8.90;99.90
52849;DHT22;38714;53.180;5.812;2023-03-21T04:13:37;8.80;99.90
52849;DHT22;38714;53.180;5.812;2023-03-21T04:16:03;8.90;99.90
52849;DHT22;38714;53.180;5.812;2023-03-21T04:18:29;8.90;99.90
52849;DHT22;38714;53.180;5.812;2023-03-21T04:20:54;8.90;99.90
52849;DHT22;38714;53.180;5.812;2023-03-21T04:23:20;8.90;99.90
52849;DHT22;38714;53.180;5.812;2023-03-21T04:25:47;8.90;99.90
52849;DHT22;38714;53.180;5.812;2023-03-21T04:28:15;8.90;99.90
52849;DHT22;38714;53.180;5.812;2023-03-21T04:30:40;8.90;99.90
52849;DHT22;38714;53.180;5.812;2023-03-21T04:33:06;8.90;99.90
52849;DHT22;38714;53.180;5.812;2023-03-21T04:35:32;8.90;99.90
52849;DHT22;38714;53.180;5.812;2023-03-21T04:37:58;8.90;99.90
52849;DHT22;38714;53.180;5.812;2023-03-21T04:40:24;8.90;99.90
52849;DHT22;38714;53.180;5.812;2023-03-21T04:42:51;8.90;99.90
52849;DHT22;38714;53.180;5.812;2023-03-21T04:45:17;8.90;99.90
52849;DHT22;38714;53.180;5.812;2023-03-21T04:47:42;8.90;99.90
52849;DHT22;38714;53.180;5.812;2023-03-21T04:50:09;8.90;99.90
52849;DHT22;38714;53.180;5.812;2023-03-21T04:52:35;8.90;99.90
52849;DHT22;38714;53.180;5.812;2023-03-21T04:55:01;8.90;99.90
52849;DHT22;38714;53.180;5.812;2023-03-21T04:57:27;8.90;99.90
52849;DHT22;38714;53.180;5.812;2023-03-21T04:59:52;8.90;99.90
52849;DHT22;38714;53.180;5.812;2023-03-21T05:02:18;8.90;99.90
52849;DHT22;38714;53.180;5.812;2023-03-21T05:04:43;8.90;99.90
52849;DHT22;38714;53.180;5.812;2023-03-21T05:07:09;8.90;99.90
52849;DHT22;38714;53.180;5.812;2023-03-21T05:09:35;8.90;99.90
52849;DHT22;38714;53.180;5.812;2023-03-21T05:12:01;8.90;99.90
52849;DHT22;38714;53.180;5.812;2023-03-21T05:14:26;8.90;99.90
52849;DHT22;38714;53.180;5.812;2023-03-21T05:16:53;8.90;99.90
52849;DHT22;38714;53.180;5.812;2023-03-21T05:19:28;8.90;99.90
52849;DHT22;38714;53.180;5.812;2023-03-21T05:22:03;8.90;99.90
52849;DHT22;38714;53.180;5.812;2023-03-21T05:24:30;8.90;99.90
52849;DHT22;38714;53.180;5.812;2023-03-21T05:26:56;8.90;99.90
52849;DHT22;38714;53.180;5.812;2023-03-21T05:29:28;8.90;99.90
52849;DHT22;38714;53.180;5.812;2023-03-21T05:31:55;8.90;99.90
52849;DHT22;38714;53.180;5.812;2023-03-21T05:34:21;9.00;99.90
52849;DHT22;38714;53.180;5.812;2023-03-21T05:36:46;8.90;99.90
52849;DHT22;38714;53.180;5.812;2023-03-21T05:39:12;8.90;99.90
52849;DHT22;38714;53.180;5.812;2023-03-21T05:41:37;8.90;99.90
52849;DHT22;38714;53.180;5.812;2023-03-21T05:44:03;8.90;99.90
52849;DHT22;38714;53.180;5.812;2023-03-21T05:46:29;8.90;99.90
52849;DHT22;38714;53.180;5.812;2023-03-21T05:48:54;8.90;99.90
52849;DHT22;38714;53.180;5.812;2023-03-21T05:51:20;8.90;99.90
52849;DHT22;38714;53.180;5.812;2023-03-21T05:53:45;8.90;99.90
52849;DHT22;38714;53.180;5.812;2023-03-21T05:56:11;8.90;99.90
52849;DHT22;38714;53.180;5.812;2023-03-21T05:58:37;8.90;99.90
52849;DHT22;38714;53.180;5.812;2023-03-21T06:01:02;8.90;99.90
52849;DHT22;38714;53.180;5.812;2023-03-21T06:03:28;8.90;99.90
52849;DHT22;38714;53.180;5.812;2023-03-21T06:05:54;9.00;99.90
52849;DHT22;38714;53.180;5.812;2023-03-21T06:08:19;8.90;99.90
52849;DHT22;38714;53.180;5.812;2023-03-21T06:10:45;8.90;99.90
52849;DHT22;38714;53.180;5.812;2023-03-21T06:13:10;9.00;99.90
52849;DHT22;38714;53.180;5.812;2023-03-21T06:15:36;9.00;99.90
52849;DHT22;38714;53.180;5.812;2023-03-21T06:18:02;9.00;99.90
52849;DHT22;38714;53.180;5.812;2023-03-21T06:20:27;9.00;99.90
52849;DHT22;38714;53.180;5.812;2023-03-21T06:22:53;9.00;99.90
52849;DHT22;38714;53.180;5.812;2023-03-21T06:25:18;9.00;99.90
52849;DHT22;38714;53.180;5.812;2023-03-21T06:27:44;9.00;99.90
52849;DHT22;38714;53.180;5.812;2023-03-21T06:30:10;9.00;99.90
52849;DHT22;38714;53.180;5.812;2023-03-21T06:32:36;9.00;99.90
52849;DHT22;38714;53.180;5.812;2023-03-21T06:35:01;9.00;99.90
52849;DHT22;38714;53.180;5.812;2023-03-21T06:37:27;9.00;99.90
52849;DHT22;38714;53.180;5.812;2023-03-21T06:39:53;9.00;99.90
52849;DHT22;38714;53.180;5.812;2023-03-21T06:42:19;9.00;99.90
52849;DHT22;38714;53.180;5.812;2023-03-21T06:44:44;9.00;99.90
52849;DHT22;38714;53.180;5.812;2023-03-21T06:47:10;9.00;99.90
52849;DHT22;38714;53.180;5.812;2023-03-21T06:49:36;9.00;99.90
52849;DHT22;38714;53.180;5.812;2023-03-21T06:52:01;9.00;99.90
52849;DHT22;38714;53.180;5.812;2023-03-21T06:54:27;9.00;99.90
52849;DHT22;38714;53.180;5.812;2023-03-21T06:56:53;9.00;99.90
52849;DHT22;38714;53.180;5.812;2023-03-21T06:59:19;9.10;99.90
52849;DHT22;38714;53.180;5.812;2023-03-21T07:01:45;9.10;99.90
52849;DHT22;38714;53.180;5.812;2023-03-21T07:04:11;9.00;99.90
52849;DHT22;38714;53.180;5.812;2023-03-21T07:06:37;9.00;99.90
52849;DHT22;38714;53.180;5.812;2023-03-21T07:09:03;9.10;99.90
52849;DHT22;38714;53.180;5.812;2023-03-21T07:11:30;9.10;99.90
52849;DHT22;38714;53.180;5.812;2023-03-21T07:13:56;9.10;99.90
52849;DHT22;38714;53.180;5.812;2023-03-21T07:16:22;9.00;99.90
52849;DHT22;38714;53.180;5.812;2023-03-21T07:18:49;9.10;99.90
52849;DHT22;38714;53.180;5.812;2023-03-21T07:21:14;9.10;99.90
52849;DHT22;38714;53.180;5.812;2023-03-21T07:23:40;9.10;99.90
52849;DHT22;38714;53.180;5.812;2023-03-21T07:26:06;9.10;99.90
52849;DHT22;38714;53.180;5.812;2023-03-21T07:28:31;9.10;99.90
52849;DHT22;38714;53.180;5.812;2023-03-21T07:31:00;9.10;99.90
52849;DHT22;38714;53.180;5.812;2023-03-21T07:33:26;9.10;99.90
52849;DHT22;38714;53.180;5.812;2023-03-21T07:35:54;9.10;99.90
52849;DHT22;38714;53.180;5.812;2023-03-21T07:38:20;9.10;99.90
52849;DHT22;38714;53.180;5.812;2023-03-21T07:40:47;9.10;99.90
52849;DHT22;38714;53.180;5.812;2023-03-21T07:43:14;9.20;99.90
52849;DHT22;38714;53.180;5.812;2023-03-21T07:45:40;9.10;99.90
52849;DHT22;38714;53.180;5.812;2023-03-21T07:48:07;9.20;99.90
52849;DHT22;38714;53.180;5.812;2023-03-21T07:50:33;9.20;99.90
52849;DHT22;38714;53.180;5.812;2023-03-21T07:52:59;9.20;99.90
52849;DHT22;38714;53.180;5.812;2023-03-21T07:55:25;9.20;99.90
52849;DHT22;38714;53.180;5.812;2023-03-21T07:57:51;9.20;99.90
52849;DHT22;38714;53.180;5.812;2023-03-21T08:00:19;9.20;99.90
52849;DHT22;38714;53.180;5.812;2023-03-21T08:02:54;9.20;99.90
52849;DHT22;38714;53.180;5.812;2023-03-21T08:05:26;9.20;99.90
52849;DHT22;38714;53.180;5.812;2023-03-21T08:07:52;9.20;99.90
52849;DHT22;38714;53.180;5.812;2023-03-21T08:10:18;9.20;99.90
52849;DHT22;38714;53.180;5.812;2023-03-21T08:12:45;9.20;99.90
52849;DHT22;38714;53.180;5.812;2023-03-21T08:15:11;9.20;99.90
52849;DHT22;38714;53.180;5.812;2023-03-21T08:17:38;9.30;99.90
52849;DHT22;38714;53.180;5.812;2023-03-21T08:20:05;9.20;99.90
52849;DHT22;38714;53.180;5.812;2023-03-21T08:22:35;9.20;99.90
52849;DHT22;38714;53.180;5.812;2023-03-21T08:25:05;9.30;99.90
52849;DHT22;38714;53.180;5.812;2023-03-21T08:27:32;9.30;99.90
52849;DHT22;38714;53.180;5.812;2023-03-21T08:29:58;9.30;99.90
52849;DHT22;38714;53.180;5.812;2023-03-21T08:32:24;9.30;99.90
52849;DHT22;38714;53.180;5.812;2023-03-21T08:34:58;9.30;99.90
52849;DHT22;38714;53.180;5.812;2023-03-21T08:37:24;9.30;99.90
52849;DHT22;38714;53.180;5.812;2023-03-21T08:39:51;9.40;99.90
52849;DHT22;38714;53.180;5.812;2023-03-21T08:42:17;9.30;99.90
52849;DHT22;38714;53.180;5.812;2023-03-21T08:44:43;9.40;99.90
52849;DHT22;38714;53.180;5.812;2023-03-21T08:47:09;9.40;99.90
52849;DHT22;38714;53.180;5.812;2023-03-21T08:49:35;9.40;99.90
52849;DHT22;38714;53.180;5.812;2023-03-21T08:52:01;9.40;99.90
52849;DHT22;38714;53.180;5.812;2023-03-21T08:54:27;9.40;99.90
52849;DHT22;38714;53.180;5.812;2023-03-21T08:56:53;9.40;99.90
52849;DHT22;38714;53.180;5.812;2023-03-21T08:59:18;9.40;99.90
52849;DHT22;38714;53.180;5.812;2023-03-21T09:01:44;9.40;99.90
52849;DHT22;38714;53.180;5.812;2023-03-21T09:04:10;9.40;99.90
52849;DHT22;38714;53.180;5.812;2023-03-21T09:06:39;9.40;99.90
52849;DHT22;38714;53.180;5.812;2023-03-21T09:09:05;9.50;99.90
52849;DHT22;38714;53.180;5.812;2023-03-21T09:11:33;9.50;99.90
52849;DHT22;38714;53.180;5.812;2023-03-21T09:13:59;9.40;99.90
52849;DHT22;38714;53.180;5.812;2023-03-21T09:16:24;9.50;99.90
52849;DHT22;38714;53.180;5.812;2023-03-21T09:18:50;9.50;99.90
52849;DHT22;38714;53.180;5.812;2023-03-21T09:21:20;9.50;99.90
52849;DHT22;38714;53.180;5.812;2023-03-21T09:23:47;9.50;99.90
52849;DHT22;38714;53.180;5.812;2023-03-21T09:26:18;9.50;99.90
52849;DHT22;38714;53.180;5.812;2023-03-21T09:28:44;9.50;99.90
52849;DHT22;38714;53.180;5.812;2023-03-21T09:31:11;9.60;99.90
52849;DHT22;38714;53.180;5.812;2023-03-21T09:33:39;9.50;99.90
52849;DHT22;38714;53.180;5.812;2023-03-21T09:36:06;9.50;99.90
52849;DHT22;38714;53.180;5.812;2023-03-21T09:38:36;9.50;99.90
52849;DHT22;38714;53.180;5.812;2023-03-21T09:41:38;9.50;99.90
52849;DHT22;38714;53.180;5.812;2023-03-21T09:44:15;9.50;99.90
52849;DHT22;38714;53.180;5.812;2023-03-21T09:49:56;9.50;99.90
52849;DHT22;38714;53.180;5.812;2023-03-21T09:54:57;9.50;99.90
52849;DHT22;38714;53.180;5.812;2023-03-21T09:59:55;9.60;99.90
52849;DHT22;38714;53.180;5.812;2023-03-21T10:04:58;9.70;99.90
52849;DHT22;38714;53.180;5.812;2023-03-21T10:07:26;9.70;99.90
52849;DHT22;38714;53.180;5.812;2023-03-21T10:09:56;9.70;99.90
52849;DHT22;38714;53.180;5.812;2023-03-21T10:12:23;9.80;99.90
52849;DHT22;38714;53.180;5.812;2023-03-21T10:14:56;9.80;99.90
52849;DHT22;38714;53.180;5.812;2023-03-21T10:17:33;9.80;99.90
52849;DHT22;38714;53.180;5.812;2023-03-21T10:20:21;9.90;99.90
52849;DHT22;38714;53.180;5.812;2023-03-21T10:22:50;9.90;99.90
52849;DHT22;38714;53.180;5.812;2023-03-21T10:25:19;10.00;99.90
52849;DHT22;38714;53.180;5.812;2023-03-21T10:27:45;10.10;99.90
52849;DHT22;38714;53.180;5.812;2023-03-21T10:30:27;10.20;99.90
52849;DHT22;38714;53.180;5.812;2023-03-21T10:32:56;10.20;99.90
52849;DHT22;38714;53.180;5.812;2023-03-21T10:35:23;10.30;99.90
52849;DHT22;38714;53.180;5.812;2023-03-21T10:37:49;10.40;99.90
52849;DHT22;38714;53.180;5.812;2023-03-21T10:40:16;10.40;99.90
52849;DHT22;38714;53.180;5.812;2023-03-21T10:42:43;10.40;99.90
52849;DHT22;38714;53.180;5.812;2023-03-21T10:45:16;10.50;99.90
52849;DHT22;38714;53.180;5.812;2023-03-21T10:47:47;10.40;99.90
52849;DHT22;38714;53.180;5.812;2023-03-21T10:50:15;10.50;99.90
52849;DHT22;38714;53.180;5.812;2023-03-21T10:52:54;10.50;99.90
52849;DHT22;38714;53.180;5.812;2023-03-21T10:55:30;10.50;99.90
52849;DHT22;38714;53.180;5.812;2023-03-21T10:58:06;10.60;99.90
52849;DHT22;38714;53.180;5.812;2023-03-21T11:00:39;10.60;99.90
52849;DHT22;38714;53.180;5.812;2023-03-21T11:03:06;10.60;99.90
52849;DHT22;38714;53.180;5.812;2023-03-21T11:05:38;10.60;99.90
52849;DHT22;38714;53.180;5.812;2023-03-21T11:08:15;10.70;99.90
52849;DHT22;38714;53.180;5.812;2023-03-21T11:11:04;10.70;99.90
52849;DHT22;38714;53.180;5.812;2023-03-21T11:13:41;10.70;99.90
52849;DHT22;38714;53.180;5.812;2023-03-21T11:16:18;10.80;99.90
52849;DHT22;38714;53.180;5.812;2023-03-21T11:18:51;10.80;99.90
52849;DHT22;38714;53.180;5.812;2023-03-21T11:21:21;10.80;99.90
52849;DHT22;38714;53.180;5.812;2023-03-21T11:23:54;10.90;99.90
52849;DHT22;38714;53.180;5.812;2023-03-21T11:26:37;10.90;99.90
52849;DHT22;38714;53.180;5.812;2023-03-21T11:29:34;10.90;99.90
52849;DHT22;38714;53.180;5.812;2023-03-21T11:31:59;10.90;99.90
52849;DHT22;38714;53.180;5.812;2023-03-21T11:34:41;10.90;99.90
52849;DHT22;38714;53.180;5.812;2023-03-21T11:37:32;10.90;99.90
52849;DHT22;38714;53.180;5.812;2023-03-21T11:40:25;10.90;99.90
52849;DHT22;38714;53.180;5.812;2023-03-21T11:45:28;10.90;99.90
52849;DHT22;38714;53.180;5.812;2023-03-21T11:47:57;10.90;99.90
52849;DHT22;38714;53.180;5.812;2023-03-21T11:50:39;10.80;99.90
52849;DHT22;38714;53.180;5.812;2023-03-21T11:59:06;10.80;99.90
52849;DHT22;38714;53.180;5.812;2023-03-21T12:04:36;10.80;99.90
52849;DHT22;38714;53.180;5.812;2023-03-21T12:07:27;10.80;99.90
52849;DHT22;38714;53.180;5.812;2023-03-21T12:10:57;10.80;99.90
52849;DHT22;38714;53.180;5.812;2023-03-21T12:16:32;10.80;99.90
52849;DHT22;38714;53.180;5.812;2023-03-21T12:24:28;11.00;99.90
52849;DHT22;38714;53.180;5.812;2023-03-21T12:27:18;11.00;99.90
52849;DHT22;38714;53.180;5.812;2023-03-21T12:32:44;11.00;99.90
52849;DHT22;38714;53.180;5.812;2023-03-21T12:38:24;11.00;99.90
52849;DHT22;38714;53.180;5.812;2023-03-21T12:41:04;11.10;99.90
52849;DHT22;38714;53.180;5.812;2023-03-21T12:48:49;11.10;99.90
52849;DHT22;38714;53.180;5.812;2023-03-21T12:51:23;11.10;99.90
52849;DHT22;38714;53.180;5.812;2023-03-21T12:54:09;11.20;99.90
52849;DHT22;38714;53.180;5.812;2023-03-21T12:57:00;11.20;99.90
52849;DHT22;38714;53.180;5.812;2023-03-21T13:02:42;11.20;99.90
52849;DHT22;38714;53.180;5.812;2023-03-21T13:08:00;11.30;99.90
52849;DHT22;38714;53.180;5.812;2023-03-21T13:10:29;11.30;99.90
52849;DHT22;38714;53.180;5.812;2023-03-21T13:27:01;11.50;99.90
52849;DHT22;38714;53.180;5.812;2023-03-21T13:29:33;11.50;99.90
52849;DHT22;38714;53.180;5.812;2023-03-21T13:32:27;11.60;99.90
52849;DHT22;38714;53.180;5.812;2023-03-21T13:34:59;11.60;99.90
52849;DHT22;38714;53.180;5.812;2023-03-21T13:37:31;11.60;99.90
52849;DHT22;38714;53.180;5.812;2023-03-21T13:40:19;11.60;99.90
52849;DHT22;38714;53.180;5.812;2023-03-21T13:42:51;11.60;99.90
52849;DHT22;38714;53.180;5.812;2023-03-21T13:45:43;11.60;99.90
52849;DHT22;38714;53.180;5.812;2023-03-21T13:48:28;11.60;99.90
52849;DHT22;38714;53.180;5.812;2023-03-21T13:51:02;11.60;99.90
52849;DHT22;38714;53.180;5.812;2023-03-21T13:53:35;11.60;99.90
52849;DHT22;38714;53.180;5.812;2023-03-21T13:56:18;11.60;99.90
52849;DHT22;38714;53.180;5.812;2023-03-21T14:03:46;11.80;99.90
52849;DHT22;38714;53.180;5.812;2023-03-21T14:06:14;11.80;99.90
52849;DHT22;38714;53.180;5.812;2023-03-21T14:08:43;11.90;99.90
52849;DHT22;38714;53.180;5.812;2023-03-21T14:11:15;11.90;99.90
52849;DHT22;38714;53.180;5.812;2023-03-21T14:13:42;12.00;99.90
52849;DHT22;38714;53.180;5.812;2023-03-21T14:16:14;12.00;99.90
52849;DHT22;38714;53.180;5.812;2023-03-21T14:19:04;12.00;99.90
52849;DHT22;38714;53.180;5.812;2023-03-21T14:21:32;12.00;99.90
52849;DHT22;38714;53.180;5.812;2023-03-21T14:24:06;11.90;99.90
52849;DHT22;38714;53.180;5.812;2023-03-21T14:26:39;11.90;99.90
52849;DHT22;38714;53.180;5.812;2023-03-21T14:29:17;11.90;99.90
52849;DHT22;38714;53.180;5.812;2023-03-21T14:31:46;11.80;99.90
52849;DHT22;38714;53.180;5.812;2023-03-21T14:34:14;11.80;99.90
52849;DHT22;38714;53.180;5.812;2023-03-21T14:36:41;11.70;99.90
52849;DHT22;38714;53.180;5.812;2023-03-21T14:39:16;11.70;99.90
52849;DHT22;38714;53.180;5.812;2023-03-21T14:41:54;11.60;99.90
52849;DHT22;38714;53.180;5.812;2023-03-21T14:44:24;11.60;99.90
52849;DHT22;38714;53.180;5.812;2023-03-21T14:47:06;11.60;99.90
52849;DHT22;38714;53.180;5.812;2023-03-21T14:49:34;11.50;99.90
52849;DHT22;38714;53.180;5.812;2023-03-21T14:52:02;11.50;99.90
52849;DHT22;38714;53.180;5.812;2023-03-21T14:54:29;11.50;99.90
52849;DHT22;38714;53.180;5.812;2023-03-21T14:57:01;11.40;99.90
52849;DHT22;38714;53.180;5.812;2023-03-21T14:59:35;11.40;99.90
52849;DHT22;38714;53.180;5.812;2023-03-21T15:02:24;11.30;99.90
52849;DHT22;38714;53.180;5.812;2023-03-21T15:04:54;11.30;99.90
52849;DHT22;38714;53.180;5.812;2023-03-21T15:09:54;11.20;99.90
52849;DHT22;38714;53.180;5.812;2023-03-21T15:12:20;11.20;99.90
52849;DHT22;38714;53.180;5.812;2023-03-21T15:14:46;11.20;99.90
52849;DHT22;38714;53.180;5.812;2023-03-21T15:17:12;11.10;99.90
52849;DHT22;38714;53.180;5.812;2023-03-21T15:19:38;11.10;99.90
52849;DHT22;38714;53.180;5.812;2023-03-21T15:22:34;11.10;99.90
52849;DHT22;38714;53.180;5.812;2023-03-21T15:25:04;11.10;99.90
52849;DHT22;38714;53.180;5.812;2023-03-21T15:27:36;11.00;99.90
52849;DHT22;38714;53.180;5.812;2023-03-21T15:30:02;11.00;99.90
52849;DHT22;38714;53.180;5.812;2023-03-21T15:32:28;11.00;99.90
52849;DHT22;38714;53.180;5.812;2023-03-21T15:35:06;11.00;99.90
52849;DHT22;38714;53.180;5.812;2023-03-21T15:37:35;11.00;99.90
52849;DHT22;38714;53.180;5.812;2023-03-21T15:40:19;10.90;99.90
52849;DHT22;38714;53.180;5.812;2023-03-21T15:42:45;10.90;99.90
52849;DHT22;38714;53.180;5.812;2023-03-21T15:50:17;10.80;99.90
52849;DHT22;38714;53.180;5.812;2023-03-21T15:52:48;10.80;99.90
52849;DHT22;38714;53.180;5.812;2023-03-21T15:55:21;10.70;99.90
52849;DHT22;38714;53.180;5.812;2023-03-21T15:57:53;10.70;99.90
52849;DHT22;38714;53.180;5.812;2023-03-21T16:00:23;10.60;99.90
52849;DHT22;38714;53.180;5.812;2023-03-21T16:02:54;10.60;99.90
52849;DHT22;38714;53.180;5.812;2023-03-21T16:05:32;10.60;99.90
52849;DHT22;38714;53.180;5.812;2023-03-21T16:10:37;10.50;99.90
52849;DHT22;38714;53.180;5.812;2023-03-21T16:13:04;10.50;99.90
52849;DHT22;38714;53.180;5.812;2023-03-21T16:15:31;10.50;99.90
52849;DHT22;38714;53.180;5.812;2023-03-21T16:17:59;10.50;99.90
52849;DHT22;38714;53.180;5.812;2023-03-21T16:20:32;10.50;99.90
52849;DHT22;38714;53.180;5.812;2023-03-21T16:22:58;10.40;99.90
52849;DHT22;38714;53.180;5.812;2023-03-21T16:25:24;10.40;99.90
52849;DHT22;38714;53.180;5.812;2023-03-21T16:27:50;10.40;99.90
52849;DHT22;38714;53.180;5.812;2023-03-21T16:30:19;10.40;99.90
52849;DHT22;38714;53.180;5.812;2023-03-21T16:32:46;10.40;99.90
52849;DHT22;38714;53.180;5.812;2023-03-21T16:35:12;10.40;99.90
52849;DHT22;38714;53.180;5.812;2023-03-21T16:37:38;10.40;99.90
52849;DHT22;38714;53.180;5.812;2023-03-21T16:40:26;10.40;99.90
52849;DHT22;38714;53.180;5.812;2023-03-21T16:42:53;10.40;99.90
52849;DHT22;38714;53.180;5.812;2023-03-21T16:45:19;10.40;99.90
52849;DHT22;38714;53.180;5.812;2023-03-21T16:47:45;10.40;99.90
52849;DHT22;38714;53.180;5.812;2023-03-21T16:52:48;10.40;99.90
52849;DHT22;38714;53.180;5.812;2023-03-21T16:55:14;10.40;99.90
52849;DHT22;38714;53.180;5.812;2023-03-21T16:57:40;10.40;99.90
52849;DHT22;38714;53.180;5.812;2023-03-21T17:00:07;10.40;99.90
52849;DHT22;38714;53.180;5.812;2023-03-21T17:02:36;10.40;99.90
52849;DHT22;38714;53.180;5.812;2023-03-21T17:05:01;10.30;99.90
52849;DHT22;38714;53.180;5.812;2023-03-21T17:07:28;10.30;99.90
52849;DHT22;38714;53.180;5.812;2023-03-21T17:09:54;10.30;99.90
52849;DHT22;38714;53.180;5.812;2023-03-21T17:12:19;10.30;99.90
52849;DHT22;38714;53.180;5.812;2023-03-21T17:14:45;10.30;99.90
52849;DHT22;38714;53.180;5.812;2023-03-21T17:17:15;10.30;99.90
52849;DHT22;38714;53.180;5.812;2023-03-21T17:19:41;10.30;99.90
52849;DHT22;38714;53.180;5.812;2023-03-21T17:22:07;10.30;99.90
52849;DHT22;38714;53.180;5.812;2023-03-21T17:24:36;10.30;99.90
52849;DHT22;38714;53.180;5.812;2023-03-21T17:27:03;10.30;99.90
52849;DHT22;38714;53.180;5.812;2023-03-21T17:29:29;10.30;99.90
52849;DHT22;38714;53.180;5.812;2023-03-21T17:31:54;10.20;99.90
52849;DHT22;38714;53.180;5.812;2023-03-21T17:34:20;10.30;99.90
52849;DHT22;38714;53.180;5.812;2023-03-21T17:36:46;10.20;99.90
52849;DHT22;38714;53.180;5.812;2023-03-21T17:39:23;10.20;99.90
52849;DHT22;38714;53.180;5.812;2023-03-21T17:41:50;10.20;99.90
52849;DHT22;38714;53.180;5.812;2023-03-21T17:44:16;10.20;99.90